sensor_id;sensor_type;location;lat;lon;timestamp;P1;durP1;ratioP1;P2;durP2;ratioP2
35114;SDS011;21292;52.416;13.046;2022-07-23T00:01:12;10.57;;;8.45;;
35114;SDS011;21292;52.416;13.046;2022-07-23T00:03:48;18.67;;;9.18;;
35114;SDS011;21292;52.416;13.046;2022-07-23T00:06:20;11.45;;;8.55;;
35114;SDS011;21292;52.416;13.046;2022-07-23T00:08:50;11.52;;;9.05;;
35114;SDS011;21292;52.416;13.046;2022-07-23T00:11:19;15.02;;;9.18;;
35114;SDS011;21292;52.416;13.046;2022-07-23T00:13:48;17.35;;;9.23;;
35114;SDS011;21292;52.416;13.046;2022-07-23T00:16:17;13.93;;;9.40;;
35114;SDS011;21292;52.416;13.046;2022-07-23T00:18:45;11.93;;;8.75;;
35114;SDS011;21292;52.416;13.046;2022-07-23T00:21:13;10.52;;;8.55;;
35114;SDS011;21292;52.416;13.046;2022-07-23T00:23:41;12.18;;;8.60;;
35114;SDS011;21292;52.416;13.046;2022-07-23T00:26:11;12.77;;;8.95;;
35114;SDS011;21292;52.416;13.046;2022-07-23T00:28:39;11.20;;;9.10;;
35114;SDS011;21292;52.416;13.046;2022-07-23T00:31:07;13.27;;;8.82;;
35114;SDS011;21292;52.416;13.046;2022-07-23T00:33:35;12.18;;;8.93;;
35114;SDS011;21292;52.416;13.046;2022-07-23T00:36:05;17.90;;;9.35;;
35114;SDS011;21292;52.416;13.046;2022-07-23T00:38:34;10.32;;;8.18;;
35114;SDS011;21292;52.416;13.046;2022-07-23T00:41:02;11.88;;;8.45;;
35114;SDS011;21292;52.416;13.046;2022-07-23T00:43:32;13.20;;;8.40;;
35114;SDS011;21292;52.416;13.046;2022-07-23T00:46:01;11.50;;;8.55;;
35114;SDS011;21292;52.416;13.046;2022-07-23T00:48:29;12.45;;;9.40;;
35114;SDS011;21292;52.416;13.046;2022-07-23T00:50:57;15.80;;;8.88;;
35114;SDS011;21292;52.416;13.046;2022-07-23T00:53:26;10.82;;;8.10;;
35114;SDS011;21292;52.416;13.046;2022-07-23T00:55:55;11.77;;;8.65;;
35114;SDS011;21292;52.416;13.046;2022-07-23T00:58:23;11.25;;;8.52;;
35114;SDS011;21292;52.416;13.046;2022-07-23T01:00:53;13.23;;;8.25;;
35114;SDS011;21292;52.416;13.046;2022-07-23T01:03:21;12.43;;;8.73;;
35114;SDS011;21292;52.416;13.046;2022-07-23T01:05:50;10.45;;;8.18;;
35114;SDS011;21292;52.416;13.046;2022-07-23T01:08:19;16.77;;;8.95;;
35114;SDS011;21292;52.416;13.046;2022-07-23T01:10:48;11.77;;;8.57;;
35114;SDS011;21292;52.416;13.046;2022-07-23T01:13:17;14.43;;;9.00;;
35114;SDS011;21292;52.416;13.046;2022-07-23T01:15:47;11.70;;;8.93;;
35114;SDS011;21292;52.416;13.046;2022-07-23T01:18:16;13.48;;;8.27;;
35114;SDS011;21292;52.416;13.046;2022-07-23T01:20:45;17.35;;;8.98;;
35114;SDS011;21292;52.416;13.046;2022-07-23T01:23:14;15.98;;;9.35;;
35114;SDS011;21292;52.416;13.046;2022-07-23T01:25:47;14.68;;;9.50;;
35114;SDS011;21292;52.416;13.046;2022-07-23T01:28:16;12.98;;;9.05;;
35114;SDS011;21292;52.416;13.046;2022-07-23T01:30:45;18.40;;;9.55;;
35114;SDS011;21292;52.416;13.046;2022-07-23T01:33:13;14.32;;;9.45;;
35114;SDS011;21292;52.416;13.046;2022-07-23T01:35:42;12.90;;;8.85;;
35114;SDS011;21292;52.416;13.046;2022-07-23T01:38:10;12.90;;;9.48;;
35114;SDS011;21292;52.416;13.046;2022-07-23T01:40:41;13.93;;;9.80;;
35114;SDS011;21292;52.416;13.046;2022-07-23T01:43:11;12.20;;;8.93;;
35114;SDS011;21292;52.416;13.046;2022-07-23T01:45:39;14.88;;;9.55;;
35114;SDS011;21292;52.416;13.046;2022-07-23T01:48:08;12.13;;;8.05;;
35114;SDS011;21292;52.416;13.046;2022-07-23T01:50:36;11.80;;;8.55;;
35114;SDS011;21292;52.416;13.046;2022-07-23T01:53:08;16.45;;;8.63;;
35114;SDS011;21292;52.416;13.046;2022-07-23T01:55:36;11.80;;;8.32;;
35114;SDS011;21292;52.416;13.046;2022-07-23T01:58:06;13.68;;;9.32;;
35114;SDS011;21292;52.416;13.046;2022-07-23T02:00:34;10.48;;;7.90;;
35114;SDS011;21292;52.416;13.046;2022-07-23T02:03:02;9.68;;;7.72;;
35114;SDS011;21292;52.416;13.046;2022-07-23T02:05:36;13.98;;;8.00;;
35114;SDS011;21292;52.416;13.046;2022-07-23T02:08:04;11.73;;;8.13;;
35114;SDS011;21292;52.416;13.046;2022-07-23T02:10:32;12.65;;;8.43;;
35114;SDS011;21292;52.416;13.046;2022-07-23T02:13:00;14.98;;;7.72;;
35114;SDS011;21292;52.416;13.046;2022-07-23T02:15:30;11.90;;;7.65;;
35114;SDS011;21292;52.416;13.046;2022-07-23T02:17:58;11.43;;;8.57;;
35114;SDS011;21292;52.416;13.046;2022-07-23T02:20:26;16.95;;;9.02;;
35114;SDS011;21292;52.416;13.046;2022-07-23T02:22:55;13.10;;;7.57;;
35114;SDS011;21292;52.416;13.046;2022-07-23T02:25:24;12.57;;;7.93;;
35114;SDS011;21292;52.416;13.046;2022-07-23T02:27:52;13.60;;;7.30;;
35114;SDS011;21292;52.416;13.046;2022-07-23T02:30:21;11.57;;;7.82;;
35114;SDS011;21292;52.416;13.046;2022-07-23T02:32:51;10.63;;;7.97;;
35114;SDS011;21292;52.416;13.046;2022-07-23T02:35:19;11.23;;;8.23;;
35114;SDS011;21292;52.416;13.046;2022-07-23T02:37:47;12.48;;;7.72;;
35114;SDS011;21292;52.416;13.046;2022-07-23T02:40:16;14.07;;;8.07;;
35114;SDS011;21292;52.416;13.046;2022-07-23T02:42:45;14.52;;;7.57;;
35114;SDS011;21292;52.416;13.046;2022-07-23T02:45:13;12.02;;;7.45;;
35114;SDS011;21292;52.416;13.046;2022-07-23T02:47:42;9.25;;;6.38;;
35114;SDS011;21292;52.416;13.046;2022-07-23T02:50:11;13.25;;;7.00;;
35114;SDS011;21292;52.416;13.046;2022-07-23T02:52:40;12.93;;;7.82;;
35114;SDS011;21292;52.416;13.046;2022-07-23T02:55:08;11.38;;;6.47;;
35114;SDS011;21292;52.416;13.046;2022-07-23T02:57:39;11.35;;;6.70;;
35114;SDS011;21292;52.416;13.046;2022-07-23T03:00:08;10.32;;;6.57;;
35114;SDS011;21292;52.416;13.046;2022-07-23T03:02:37;8.45;;;5.93;;
35114;SDS011;21292;52.416;13.046;2022-07-23T03:05:06;7.93;;;6.15;;
35114;SDS011;21292;52.416;13.046;2022-07-23T03:07:37;11.55;;;6.20;;
35114;SDS011;21292;52.416;13.046;2022-07-23T03:10:05;10.52;;;5.70;;
35114;SDS011;21292;52.416;13.046;2022-07-23T03:12:34;9.98;;;4.85;;
35114;SDS011;21292;52.416;13.046;2022-07-23T03:15:03;7.10;;;4.65;;
35114;SDS011;21292;52.416;13.046;2022-07-23T03:17:32;11.55;;;5.00;;
35114;SDS011;21292;52.416;13.046;2022-07-23T03:20:03;13.02;;;5.30;;
35114;SDS011;21292;52.416;13.046;2022-07-23T03:22:34;12.77;;;5.13;;
35114;SDS011;21292;52.416;13.046;2022-07-23T03:25:05;11.38;;;4.10;;
35114;SDS011;21292;52.416;13.046;2022-07-23T03:27:35;12.00;;;4.95;;
35114;SDS011;21292;52.416;13.046;2022-07-23T03:30:05;9.50;;;4.57;;
35114;SDS011;21292;52.416;13.046;2022-07-23T03:32:34;9.75;;;4.88;;
35114;SDS011;21292;52.416;13.046;2022-07-23T03:35:03;7.00;;;4.00;;
35114;SDS011;21292;52.416;13.046;2022-07-23T03:37:34;8.50;;;4.72;;
35114;SDS011;21292;52.416;13.046;2022-07-23T03:40:07;6.47;;;4.82;;
35114;SDS011;21292;52.416;13.046;2022-07-23T03:42:36;10.68;;;5.50;;
35114;SDS011;21292;52.416;13.046;2022-07-23T03:45:09;11.45;;;5.28;;
35114;SDS011;21292;52.416;13.046;2022-07-23T03:47:38;10.25;;;5.32;;
35114;SDS011;21292;52.416;13.046;2022-07-23T03:50:06;9.38;;;5.43;;
35114;SDS011;21292;52.416;13.046;2022-07-23T03:52:35;12.00;;;6.05;;
35114;SDS011;21292;52.416;13.046;2022-07-23T03:55:04;11.70;;;5.30;;
35114;SDS011;21292;52.416;13.046;2022-07-23T03:57:35;11.23;;;5.60;;
35114;SDS011;21292;52.416;13.046;2022-07-23T04:00:08;12.52;;;5.93;;
35114;SDS011;21292;52.416;13.046;2022-07-23T04:02:38;9.45;;;5.78;;
35114;SDS011;21292;52.416;13.046;2022-07-23T04:05:07;11.05;;;5.80;;
35114;SDS011;21292;52.416;13.046;2022-07-23T04:07:35;10.73;;;6.00;;
35114;SDS011;21292;52.416;13.046;2022-07-23T04:10:09;15.90;;;5.75;;
35114;SDS011;21292;52.416;13.046;2022-07-23T04:12:37;12.70;;;6.35;;
35114;SDS011;21292;52.416;13.046;2022-07-23T04:15:07;13.07;;;6.05;;
35114;SDS011;21292;52.416;13.046;2022-07-23T04:17:36;15.05;;;7.03;;
35114;SDS011;21292;52.416;13.046;2022-07-23T04:20:05;13.38;;;7.93;;
35114;SDS011;21292;52.416;13.046;2022-07-23T04:22:33;11.38;;;7.07;;
35114;SDS011;21292;52.416;13.046;2022-07-23T04:25:02;13.88;;;7.90;;
35114;SDS011;21292;52.416;13.046;2022-07-23T04:27:32;16.08;;;8.80;;
35114;SDS011;21292;52.416;13.046;2022-07-23T04:30:00;17.52;;;8.48;;
35114;SDS011;21292;52.416;13.046;2022-07-23T04:32:28;14.77;;;9.05;;
35114;SDS011;21292;52.416;13.046;2022-07-23T04:34:56;14.27;;;8.60;;
35114;SDS011;21292;52.416;13.046;2022-07-23T04:37:25;15.35;;;8.80;;
35114;SDS011;21292;52.416;13.046;2022-07-23T04:39:53;13.98;;;8.23;;
35114;SDS011;21292;52.416;13.046;2022-07-23T04:42:21;15.68;;;7.82;;
35114;SDS011;21292;52.416;13.046;2022-07-23T04:44:51;18.63;;;8.00;;
35114;SDS011;21292;52.416;13.046;2022-07-23T04:47:19;14.40;;;8.02;;
35114;SDS011;21292;52.416;13.046;2022-07-23T04:49:48;14.30;;;7.82;;
35114;SDS011;21292;52.416;13.046;2022-07-23T04:52:17;14.23;;;8.05;;
35114;SDS011;21292;52.416;13.046;2022-07-23T04:54:45;13.80;;;8.32;;
35114;SDS011;21292;52.416;13.046;2022-07-23T04:57:14;17.73;;;9.73;;
35114;SDS011;21292;52.416;13.046;2022-07-23T04:59:42;21.30;;;9.98;;
35114;SDS011;21292;52.416;13.046;2022-07-23T05:02:11;17.23;;;9.52;;
35114;SDS011;21292;52.416;13.046;2022-07-23T05:04:39;18.15;;;9.52;;
35114;SDS011;21292;52.416;13.046;2022-07-23T05:07:07;15.02;;;9.15;;
35114;SDS011;21292;52.416;13.046;2022-07-23T05:09:36;19.05;;;10.50;;
35114;SDS011;21292;52.416;13.046;2022-07-23T05:12:04;16.73;;;10.65;;
35114;SDS011;21292;52.416;13.046;2022-07-23T05:14:33;17.17;;;9.48;;
35114;SDS011;21292;52.416;13.046;2022-07-23T05:17:02;15.45;;;9.90;;
35114;SDS011;21292;52.416;13.046;2022-07-23T05:19:32;17.27;;;9.48;;
35114;SDS011;21292;52.416;13.046;2022-07-23T05:22:01;22.98;;;10.90;;
35114;SDS011;21292;52.416;13.046;2022-07-23T05:24:32;23.02;;;11.82;;
35114;SDS011;21292;52.416;13.046;2022-07-23T05:27:00;17.77;;;9.93;;
35114;SDS011;21292;52.416;13.046;2022-07-23T05:29:29;14.73;;;9.63;;
35114;SDS011;21292;52.416;13.046;2022-07-23T05:31:57;14.90;;;8.75;;
35114;SDS011;21292;52.416;13.046;2022-07-23T05:34:26;18.50;;;10.25;;
35114;SDS011;21292;52.416;13.046;2022-07-23T05:36:55;17.33;;;8.48;;
35114;SDS011;21292;52.416;13.046;2022-07-23T05:39:24;20.52;;;8.68;;
35114;SDS011;21292;52.416;13.046;2022-07-23T05:41:56;17.75;;;9.10;;
35114;SDS011;21292;52.416;13.046;2022-07-23T05:44:31;22.13;;;10.32;;
35114;SDS011;21292;52.416;13.046;2022-07-23T05:47:00;15.35;;;9.93;;
35114;SDS011;21292;52.416;13.046;2022-07-23T05:49:29;14.73;;;9.32;;
35114;SDS011;21292;52.416;13.046;2022-07-23T05:51:58;17.00;;;9.20;;
35114;SDS011;21292;52.416;13.046;2022-07-23T05:54:27;21.17;;;9.98;;
35114;SDS011;21292;52.416;13.046;2022-07-23T05:56:55;17.40;;;10.15;;
35114;SDS011;21292;52.416;13.046;2022-07-23T05:59:23;16.05;;;9.98;;
35114;SDS011;21292;52.416;13.046;2022-07-23T06:01:51;21.23;;;11.43;;
35114;SDS011;21292;52.416;13.046;2022-07-23T06:04:20;21.55;;;11.18;;
35114;SDS011;21292;52.416;13.046;2022-07-23T06:06:48;19.83;;;10.80;;
35114;SDS011;21292;52.416;13.046;2022-07-23T06:09:17;21.75;;;11.30;;
35114;SDS011;21292;52.416;13.046;2022-07-23T06:11:46;23.35;;;11.35;;
35114;SDS011;21292;52.416;13.046;2022-07-23T06:14:14;18.27;;;11.05;;
35114;SDS011;21292;52.416;13.046;2022-07-23T06:16:42;27.27;;;12.55;;
35114;SDS011;21292;52.416;13.046;2022-07-23T06:19:10;23.05;;;12.57;;
35114;SDS011;21292;52.416;13.046;2022-07-23T06:21:38;24.60;;;13.13;;
35114;SDS011;21292;52.416;13.046;2022-07-23T06:24:13;18.15;;;12.13;;
35114;SDS011;21292;52.416;13.046;2022-07-23T06:26:43;21.98;;;12.52;;
35114;SDS011;21292;52.416;13.046;2022-07-23T06:29:12;22.42;;;11.40;;
35114;SDS011;21292;52.416;13.046;2022-07-23T06:31:40;17.33;;;11.23;;
35114;SDS011;21292;52.416;13.046;2022-07-23T06:34:08;23.83;;;12.07;;
35114;SDS011;21292;52.416;13.046;2022-07-23T06:36:37;20.23;;;11.48;;
35114;SDS011;21292;52.416;13.046;2022-07-23T06:39:05;18.88;;;11.45;;
35114;SDS011;21292;52.416;13.046;2022-07-23T06:41:34;19.40;;;11.10;;
35114;SDS011;21292;52.416;13.046;2022-07-23T06:44:04;20.60;;;11.80;;
35114;SDS011;21292;52.416;13.046;2022-07-23T06:46:33;25.77;;;13.93;;
35114;SDS011;21292;52.416;13.046;2022-07-23T06:49:02;20.73;;;13.85;;
35114;SDS011;21292;52.416;13.046;2022-07-23T06:51:33;25.55;;;13.52;;
35114;SDS011;21292;52.416;13.046;2022-07-23T06:54:01;26.40;;;15.27;;
35114;SDS011;21292;52.416;13.046;2022-07-23T06:56:30;21.98;;;13.23;;
35114;SDS011;21292;52.416;13.046;2022-07-23T06:58:58;19.08;;;12.23;;
35114;SDS011;21292;52.416;13.046;2022-07-23T07:01:28;20.15;;;13.27;;
35114;SDS011;21292;52.416;13.046;2022-07-23T07:03:57;20.40;;;12.35;;
35114;SDS011;21292;52.416;13.046;2022-07-23T07:06:25;19.17;;;12.27;;
35114;SDS011;21292;52.416;13.046;2022-07-23T07:08:53;17.63;;;12.43;;
35114;SDS011;21292;52.416;13.046;2022-07-23T07:11:22;19.65;;;12.95;;
35114;SDS011;21292;52.416;13.046;2022-07-23T07:13:52;18.90;;;11.60;;
35114;SDS011;21292;52.416;13.046;2022-07-23T07:16:20;22.02;;;11.60;;
35114;SDS011;21292;52.416;13.046;2022-07-23T07:18:49;20.40;;;11.07;;
35114;SDS011;21292;52.416;13.046;2022-07-23T07:21:18;20.10;;;10.02;;
35114;SDS011;21292;52.416;13.046;2022-07-23T07:23:47;14.02;;;9.43;;
35114;SDS011;21292;52.416;13.046;2022-07-23T07:26:15;11.18;;;9.40;;
35114;SDS011;21292;52.416;13.046;2022-07-23T07:28:46;14.40;;;10.05;;
35114;SDS011;21292;52.416;13.046;2022-07-23T07:31:16;17.25;;;9.57;;
35114;SDS011;21292;52.416;13.046;2022-07-23T07:33:44;14.10;;;9.35;;
35114;SDS011;21292;52.416;13.046;2022-07-23T07:36:15;13.18;;;8.68;;
35114;SDS011;21292;52.416;13.046;2022-07-23T07:38:46;20.83;;;9.80;;
35114;SDS011;21292;52.416;13.046;2022-07-23T07:41:15;15.60;;;8.93;;
35114;SDS011;21292;52.416;13.046;2022-07-23T07:43:43;11.27;;;7.35;;
35114;SDS011;21292;52.416;13.046;2022-07-23T07:46:11;14.10;;;7.72;;
35114;SDS011;21292;52.416;13.046;2022-07-23T07:48:39;13.93;;;6.57;;
35114;SDS011;21292;52.416;13.046;2022-07-23T07:51:08;13.05;;;7.30;;
35114;SDS011;21292;52.416;13.046;2022-07-23T07:53:39;13.60;;;7.72;;
35114;SDS011;21292;52.416;13.046;2022-07-23T07:56:11;10.95;;;7.13;;
35114;SDS011;21292;52.416;13.046;2022-07-23T07:58:39;8.45;;;6.70;;
35114;SDS011;21292;52.416;13.046;2022-07-23T08:01:08;11.55;;;6.43;;
35114;SDS011;21292;52.416;13.046;2022-07-23T08:03:37;10.02;;;5.63;;
35114;SDS011;21292;52.416;13.046;2022-07-23T08:06:05;9.63;;;5.03;;
35114;SDS011;21292;52.416;13.046;2022-07-23T08:08:34;14.60;;;6.97;;
35114;SDS011;21292;52.416;13.046;2022-07-23T08:11:06;9.82;;;6.15;;
35114;SDS011;21292;52.416;13.046;2022-07-23T08:13:35;7.32;;;4.75;;
35114;SDS011;21292;52.416;13.046;2022-07-23T08:16:04;8.82;;;5.65;;
35114;SDS011;21292;52.416;13.046;2022-07-23T08:18:34;8.40;;;5.35;;
35114;SDS011;21292;52.416;13.046;2022-07-23T08:21:02;10.50;;;4.90;;
35114;SDS011;21292;52.416;13.046;2022-07-23T08:23:31;10.52;;;4.90;;
35114;SDS011;21292;52.416;13.046;2022-07-23T08:26:00;7.60;;;4.90;;
35114;SDS011;21292;52.416;13.046;2022-07-23T08:28:33;10.02;;;5.35;;
35114;SDS011;21292;52.416;13.046;2022-07-23T08:31:02;9.77;;;4.82;;
35114;SDS011;21292;52.416;13.046;2022-07-23T08:33:32;8.48;;;5.05;;
35114;SDS011;21292;52.416;13.046;2022-07-23T08:36:00;12.43;;;4.95;;
35114;SDS011;21292;52.416;13.046;2022-07-23T08:38:31;7.97;;;4.32;;
35114;SDS011;21292;52.416;13.046;2022-07-23T08:41:00;15.00;;;5.53;;
35114;SDS011;21292;52.416;13.046;2022-07-23T08:43:29;7.28;;;4.53;;
35114;SDS011;21292;52.416;13.046;2022-07-23T08:46:00;7.90;;;4.32;;
35114;SDS011;21292;52.416;13.046;2022-07-23T08:48:29;5.95;;;3.67;;
35114;SDS011;21292;52.416;13.046;2022-07-23T08:51:01;8.93;;;4.13;;
35114;SDS011;21292;52.416;13.046;2022-07-23T08:53:31;9.05;;;4.63;;
35114;SDS011;21292;52.416;13.046;2022-07-23T08:56:02;12.13;;;3.95;;
35114;SDS011;21292;52.416;13.046;2022-07-23T08:58:31;10.30;;;4.60;;
35114;SDS011;21292;52.416;13.046;2022-07-23T09:01:01;8.82;;;4.63;;
35114;SDS011;21292;52.416;13.046;2022-07-23T09:03:30;10.15;;;5.32;;
35114;SDS011;21292;52.416;13.046;2022-07-23T09:06:00;10.60;;;5.13;;
35114;SDS011;21292;52.416;13.046;2022-07-23T09:08:34;8.80;;;5.45;;
35114;SDS011;21292;52.416;13.046;2022-07-23T09:11:04;7.20;;;5.25;;
35114;SDS011;21292;52.416;13.046;2022-07-23T09:13:34;13.30;;;5.90;;
35114;SDS011;21292;52.416;13.046;2022-07-23T09:16:07;7.57;;;5.43;;
35114;SDS011;21292;52.416;13.046;2022-07-23T09:18:39;13.40;;;5.03;;
35114;SDS011;21292;52.416;13.046;2022-07-23T09:23:40;10.95;;;5.47;;
35114;SDS011;21292;52.416;13.046;2022-07-23T09:26:19;8.68;;;4.35;;
35114;SDS011;21292;52.416;13.046;2022-07-23T09:28:51;8.80;;;5.30;;
35114;SDS011;21292;52.416;13.046;2022-07-23T09:31:25;10.45;;;4.72;;
35114;SDS011;21292;52.416;13.046;2022-07-23T09:34:01;8.57;;;5.57;;
35114;SDS011;21292;52.416;13.046;2022-07-23T09:36:35;11.35;;;5.50;;
35114;SDS011;21292;52.416;13.046;2022-07-23T09:39:04;7.97;;;5.18;;
35114;SDS011;21292;52.416;13.046;2022-07-23T09:41:34;9.52;;;4.75;;
35114;SDS011;21292;52.416;13.046;2022-07-23T09:44:07;9.10;;;3.75;;
35114;SDS011;21292;52.416;13.046;2022-07-23T09:46:39;9.75;;;4.95;;
35114;SDS011;21292;52.416;13.046;2022-07-23T09:49:15;7.38;;;5.00;;
35114;SDS011;21292;52.416;13.046;2022-07-23T09:51:51;10.63;;;4.68;;
35114;SDS011;21292;52.416;13.046;2022-07-23T09:54:22;7.57;;;4.47;;
35114;SDS011;21292;52.416;13.046;2022-07-23T09:57:02;9.88;;;5.15;;
35114;SDS011;21292;52.416;13.046;2022-07-23T09:59:33;8.15;;;5.00;;
35114;SDS011;21292;52.416;13.046;2022-07-23T10:02:04;7.60;;;4.47;;
35114;SDS011;21292;52.416;13.046;2022-07-23T10:04:34;8.10;;;5.35;;
35114;SDS011;21292;52.416;13.046;2022-07-23T10:07:04;9.52;;;4.38;;
35114;SDS011;21292;52.416;13.046;2022-07-23T10:09:37;10.60;;;4.50;;
35114;SDS011;21292;52.416;13.046;2022-07-23T10:12:10;12.20;;;4.82;;
35114;SDS011;21292;52.416;13.046;2022-07-23T10:14:58;8.15;;;4.25;;
35114;SDS011;21292;52.416;13.046;2022-07-23T10:17:28;10.43;;;3.95;;
35114;SDS011;21292;52.416;13.046;2022-07-23T10:19:58;6.63;;;3.85;;
35114;SDS011;21292;52.416;13.046;2022-07-23T10:22:30;8.82;;;4.35;;
35114;SDS011;21292;52.416;13.046;2022-07-23T10:25:07;8.32;;;4.43;;
35114;SDS011;21292;52.416;13.046;2022-07-23T10:27:47;8.48;;;3.95;;
35114;SDS011;21292;52.416;13.046;2022-07-23T10:30:28;9.85;;;3.75;;
35114;SDS011;21292;52.416;13.046;2022-07-23T10:33:09;7.88;;;3.47;;
35114;SDS011;21292;52.416;13.046;2022-07-23T10:35:48;6.55;;;3.30;;
35114;SDS011;21292;52.416;13.046;2022-07-23T10:38:22;6.53;;;3.28;;
35114;SDS011;21292;52.416;13.046;2022-07-23T10:40:54;7.18;;;3.40;;
35114;SDS011;21292;52.416;13.046;2022-07-23T10:43:27;9.52;;;3.25;;
35114;SDS011;21292;52.416;13.046;2022-07-23T10:46:20;4.95;;;3.03;;
35114;SDS011;21292;52.416;13.046;2022-07-23T10:54:53;5.55;;;3.35;;
35114;SDS011;21292;52.416;13.046;2022-07-23T10:57:22;7.38;;;3.42;;
35114;SDS011;21292;52.416;13.046;2022-07-23T11:00:15;4.93;;;3.13;;
35114;SDS011;21292;52.416;13.046;2022-07-23T11:02:50;11.65;;;4.30;;
35114;SDS011;21292;52.416;13.046;2022-07-23T11:05:23;6.30;;;3.88;;
35114;SDS011;21292;52.416;13.046;2022-07-23T11:08:10;7.10;;;3.78;;
35114;SDS011;21292;52.416;13.046;2022-07-23T11:10:42;11.18;;;3.90;;
35114;SDS011;21292;52.416;13.046;2022-07-23T11:13:27;4.65;;;3.47;;
35114;SDS011;21292;52.416;13.046;2022-07-23T11:16:14;5.40;;;3.53;;
35114;SDS011;21292;52.416;13.046;2022-07-23T11:18:54;10.80;;;3.63;;
35114;SDS011;21292;52.416;13.046;2022-07-23T11:24:14;6.78;;;3.97;;
35114;SDS011;21292;52.416;13.046;2022-07-23T11:26:44;8.40;;;4.22;;
35114;SDS011;21292;52.416;13.046;2022-07-23T11:29:37;7.18;;;4.10;;
35114;SDS011;21292;52.416;13.046;2022-07-23T11:35:18;7.00;;;3.67;;
35114;SDS011;21292;52.416;13.046;2022-07-23T11:38:06;6.78;;;3.83;;
35114;SDS011;21292;52.416;13.046;2022-07-23T11:40:35;6.55;;;4.05;;
35114;SDS011;21292;52.416;13.046;2022-07-23T11:43:04;6.22;;;3.40;;
35114;SDS011;21292;52.416;13.046;2022-07-23T11:45:34;8.57;;;3.92;;
35114;SDS011;21292;52.416;13.046;2022-07-23T11:48:03;7.25;;;4.53;;
35114;SDS011;21292;52.416;13.046;2022-07-23T11:50:34;11.98;;;4.38;;
35114;SDS011;21292;52.416;13.046;2022-07-23T11:53:03;5.55;;;3.70;;
35114;SDS011;21292;52.416;13.046;2022-07-23T11:55:32;6.38;;;3.83;;
35114;SDS011;21292;52.416;13.046;2022-07-23T11:58:00;14.90;;;4.25;;
35114;SDS011;21292;52.416;13.046;2022-07-23T12:00:30;6.10;;;3.90;;
35114;SDS011;21292;52.416;13.046;2022-07-23T12:03:04;7.80;;;3.65;;
35114;SDS011;21292;52.416;13.046;2022-07-23T12:05:36;6.00;;;3.75;;
35114;SDS011;21292;52.416;13.046;2022-07-23T12:08:06;7.00;;;3.63;;
35114;SDS011;21292;52.416;13.046;2022-07-23T12:10:38;7.88;;;3.83;;
35114;SDS011;21292;52.416;13.046;2022-07-23T12:13:09;6.47;;;3.63;;
35114;SDS011;21292;52.416;13.046;2022-07-23T12:15:42;5.60;;;3.83;;
35114;SDS011;21292;52.416;13.046;2022-07-23T12:18:13;7.72;;;4.00;;
35114;SDS011;21292;52.416;13.046;2022-07-23T12:20:43;6.25;;;3.90;;
35114;SDS011;21292;52.416;13.046;2022-07-23T12:23:14;9.77;;;4.78;;
35114;SDS011;21292;52.416;13.046;2022-07-23T12:25:50;5.68;;;3.85;;
35114;SDS011;21292;52.416;13.046;2022-07-23T12:28:21;5.25;;;3.85;;
35114;SDS011;21292;52.416;13.046;2022-07-23T12:30:51;8.60;;;3.78;;
35114;SDS011;21292;52.416;13.046;2022-07-23T12:33:23;5.25;;;3.55;;
35114;SDS011;21292;52.416;13.046;2022-07-23T12:35:54;7.22;;;4.10;;
35114;SDS011;21292;52.416;13.046;2022-07-23T12:38:24;5.80;;;3.47;;
35114;SDS011;21292;52.416;13.046;2022-07-23T12:40:56;4.57;;;3.38;;
35114;SDS011;21292;52.416;13.046;2022-07-23T12:43:27;7.22;;;3.72;;
35114;SDS011;21292;52.416;13.046;2022-07-23T12:45:57;6.75;;;3.22;;
35114;SDS011;21292;52.416;13.046;2022-07-23T12:48:33;4.80;;;3.20;;
35114;SDS011;21292;52.416;13.046;2022-07-23T12:51:04;4.65;;;3.38;;
35114;SDS011;21292;52.416;13.046;2022-07-23T12:53:38;6.45;;;2.55;;
35114;SDS011;21292;52.416;13.046;2022-07-23T12:56:10;6.75;;;3.33;;
35114;SDS011;21292;52.416;13.046;2022-07-23T12:59:04;4.45;;;2.88;;
35114;SDS011;21292;52.416;13.046;2022-07-23T13:01:34;5.63;;;2.80;;
35114;SDS011;21292;52.416;13.046;2022-07-23T13:04:04;7.07;;;3.55;;
35114;SDS011;21292;52.416;13.046;2022-07-23T13:06:40;5.30;;;3.17;;
35114;SDS011;21292;52.416;13.046;2022-07-23T13:09:11;4.63;;;3.08;;
35114;SDS011;21292;52.416;13.046;2022-07-23T13:11:42;8.18;;;3.28;;
35114;SDS011;21292;52.416;13.046;2022-07-23T13:14:15;6.28;;;3.75;;
35114;SDS011;21292;52.416;13.046;2022-07-23T13:16:47;3.42;;;2.70;;
35114;SDS011;21292;52.416;13.046;2022-07-23T13:19:16;6.30;;;2.97;;
35114;SDS011;21292;52.416;13.046;2022-07-23T13:21:45;6.70;;;3.10;;
35114;SDS011;21292;52.416;13.046;2022-07-23T13:24:13;6.45;;;2.95;;
35114;SDS011;21292;52.416;13.046;2022-07-23T13:26:44;3.40;;;2.65;;
35114;SDS011;21292;52.416;13.046;2022-07-23T13:29:13;6.18;;;2.40;;
35114;SDS011;21292;52.416;13.046;2022-07-23T13:31:43;6.55;;;2.70;;
35114;SDS011;21292;52.416;13.046;2022-07-23T13:34:13;6.97;;;2.60;;
35114;SDS011;21292;52.416;13.046;2022-07-23T13:36:41;4.60;;;2.80;;
35114;SDS011;21292;52.416;13.046;2022-07-23T13:39:10;5.45;;;2.60;;
35114;SDS011;21292;52.416;13.046;2022-07-23T13:41:39;5.07;;;2.80;;
35114;SDS011;21292;52.416;13.046;2022-07-23T13:44:16;5.68;;;2.75;;
35114;SDS011;21292;52.416;13.046;2022-07-23T13:46:48;7.85;;;2.58;;
35114;SDS011;21292;52.416;13.046;2022-07-23T13:49:18;5.65;;;2.42;;
35114;SDS011;21292;52.416;13.046;2022-07-23T13:51:48;5.55;;;2.95;;
35114;SDS011;21292;52.416;13.046;2022-07-23T13:54:16;6.13;;;2.72;;
35114;SDS011;21292;52.416;13.046;2022-07-23T13:56:46;4.85;;;2.40;;
35114;SDS011;21292;52.416;13.046;2022-07-23T13:59:16;3.92;;;2.75;;
35114;SDS011;21292;52.416;13.046;2022-07-23T14:01:46;7.07;;;2.40;;
35114;SDS011;21292;52.416;13.046;2022-07-23T14:04:34;6.13;;;2.30;;
35114;SDS011;21292;52.416;13.046;2022-07-23T14:07:03;3.53;;;2.50;;
35114;SDS011;21292;52.416;13.046;2022-07-23T14:09:32;4.40;;;2.33;;
35114;SDS011;21292;52.416;13.046;2022-07-23T14:12:04;4.65;;;2.15;;
35114;SDS011;21292;52.416;13.046;2022-07-23T14:14:33;7.22;;;2.13;;
35114;SDS011;21292;52.416;13.046;2022-07-23T14:17:03;5.43;;;2.78;;
35114;SDS011;21292;52.416;13.046;2022-07-23T14:19:33;4.07;;;1.98;;
35114;SDS011;21292;52.416;13.046;2022-07-23T14:22:07;5.60;;;2.47;;
35114;SDS011;21292;52.416;13.046;2022-07-23T14:24:35;5.57;;;2.40;;
35114;SDS011;21292;52.416;13.046;2022-07-23T14:27:05;6.22;;;1.98;;
35114;SDS011;21292;52.416;13.046;2022-07-23T14:29:35;5.32;;;2.30;;
35114;SDS011;21292;52.416;13.046;2022-07-23T14:32:03;2.47;;;2.28;;
35114;SDS011;21292;52.416;13.046;2022-07-23T14:34:33;7.75;;;2.38;;
35114;SDS011;21292;52.416;13.046;2022-07-23T14:37:04;4.40;;;2.42;;
35114;SDS011;21292;52.416;13.046;2022-07-23T14:39:32;7.28;;;2.42;;
35114;SDS011;21292;52.416;13.046;2022-07-23T14:42:01;6.82;;;2.22;;
35114;SDS011;21292;52.416;13.046;2022-07-23T14:44:31;4.65;;;2.20;;
35114;SDS011;21292;52.416;13.046;2022-07-23T14:47:00;4.20;;;2.10;;
35114;SDS011;21292;52.416;13.046;2022-07-23T14:49:30;2.45;;;2.15;;
35114;SDS011;21292;52.416;13.046;2022-07-23T14:52:00;3.65;;;2.15;;
35114;SDS011;21292;52.416;13.046;2022-07-23T14:54:29;6.22;;;2.05;;
35114;SDS011;21292;52.416;13.046;2022-07-23T14:56:58;6.20;;;2.38;;
35114;SDS011;21292;52.416;13.046;2022-07-23T14:59:27;7.07;;;2.20;;